METAR Data
IDs: Format: Raw Decoded Include TAF

Data at: 1318 UTC 22 Apr 2021

KLEE 221253Z 01010KT 10SM CLR 16/05 A3015 RMK AO2 SLP209 T01560050
KLEE 221153Z 36007KT 10SM CLR 14/05 A3014 RMK AO2 SLP205 T01390050 10183 20139 53027
KLEE 221053Z 36008KT 10SM CLR 14/05 A3011 RMK AO2 SLP194 T01390050
KLEE 220953Z AUTO 36007KT 10SM CLR 15/07 A3008 RMK AO2 SLP183 T01500067
KLEE 220853Z AUTO 01009KT 10SM CLR 16/10 A3006 RMK AO2 SLP177 T01610100 53009
KLEE 220753Z AUTO 36010KT 10SM CLR 18/14 A3003 RMK AO2 SLP167 T01780139
KLEE 220653Z AUTO 32005KT 10SM CLR 18/16 A3002 RMK AO2 SLP166 T01830156
KLEE 220553Z AUTO 30004KT 10SM CLR 18/15 A3003 RMK AO2 SLP168 T01780150 10239 20178 58001
KLEE 220453Z AUTO 29004KT 10SM CLR 18/15 A3005 RMK AO2 SLP173 T01830150 402890183
KLEE 220353Z AUTO 29005KT 10SM CLR 19/15 A3004 RMK AO2 SLP172 T01940150
KLEE 220253Z AUTO 27005KT 10SM CLR 20/13 A3003 RMK AO2 SLP169 T02000133 53020
KLEE 220153Z AUTO 25004KT 10SM CLR 21/13 A3002 RMK AO2 SLP163 T02110128
KLEE 220053Z AUTO 29008KT 10SM CLR 22/13 A2999 RMK AO2 SLP155 T02220128
KLEE 212353Z AUTO 28009KT 10SM CLR 24/12 A2998 RMK AO2 SLP149 T02390122 10289 20239 51011
KLEE 212253Z 26008G16KT 10SM CLR 26/12 A2997 RMK AO2 SLP146 T02560122
KLEE 212153Z 27009KT 10SM CLR 28/13 A2995 RMK AO2 SLP142 T02780133
KLEE 212053Z 27008KT 10SM CLR 29/12 A2994 RMK AO2 SLP138 T02890122 58017
KLEE 212009Z 27006KT 10SM FEW002 29/12 A2995 RMK AO2 T02890122
KLEE 211953Z 26010KT 10SM CLR 28/13 A2996 RMK AO2 SLP143 T02830128
KLEE 211853Z 25006KT 10SM CLR 28/13 A2998 RMK AO2 SLP151 T02780133
KLEE 211753Z 27004KT 10SM CLR 27/13 A2999 RMK AO2 SLP155 T02720133 10272 20200 58010
KLEE 211732Z VRB06KT 10SM FEW002 27/13 A3000 RMK AO2 T02720133
KLEE 211653Z VRB03KT 10SM CLR 27/15 A3001 RMK AO2 SLP161 T02670150
KLEE 211553Z 35005KT 10SM CLR 26/17 A3003 RMK AO2 SLP169 T02560172
KLEE 211453Z 26005KT 10SM FEW021 23/18 A3002 RMK AO2 SLP165 T02330183 53007
KLEE 211353Z 28005KT 10SM SCT009 22/19 A3001 RMK AO2 SLP160 T02220189
KLEE 211253Z 32006KT 9SM FEW006 OVC070 20/19 A3001 RMK AO2 SLP160 T02000189
KLEE 211214Z 32005KT 7SM FEW007 OVC070 20/19 A3000 RMK AO2 T02000189
KLEE 211153Z 32007KT 7SM BKN005 OVC010 20/19 A3000 RMK AO2 CIG 004V008 SLP158 60015 70213 T02000189 10206 20200 53012
KLEE 211143Z 32005KT 2 1/2SM BR OVC005 20/19 A3000 RMK AO2 CIG 003V009 T02000189
KLEE 211101Z 30007KT 2 1/2SM BR OVC002 20/19 A2999 RMK AO2 T02000194
KLEE 211053Z 30005KT 1 3/4SM BR OVC002 20/19 A2999 RMK AO2 SLP153 T02000194
KLEE 211032Z AUTO 30005KT 1 1/2SM BR OVC003 20/19 A2999 RMK AO2 T02000194
KLEE 211023Z AUTO 29005KT 2SM BR OVC003 20/19 A2998 RMK AO2 T02000194
KLEE 211010Z AUTO 28004KT 4SM BR BKN003 OVC007 20/19 A2998 RMK AO2 T02000189
KLEE 210953Z AUTO 28003KT 5SM BR BKN006 BKN070 20/19 A2997 RMK AO2 CIG 003V009 SLP147 T02000189
KLEE 210938Z AUTO VRB03KT 6SM BR FEW004 SCT012 SCT070 20/19 A2997 RMK AO2 T02000189
KLEE 210930Z AUTO 00000KT 6SM BR FEW010 SCT031 20/19 A2997 RMK AO2 T02000194
KLEE 210917Z AUTO 00000KT 6SM BR FEW003 BKN012 OVC031 21/19 A2997 RMK AO2 T02060194
KLEE 210909Z AUTO 00000KT 6SM BR SCT010 BKN029 BKN033 21/19 A2997 RMK AO2 T02060194
KLEE 210853Z AUTO 00000KT 5SM BR FEW011 SCT016 OVC033 20/19 A2997 RMK AO2 RAE0759 SLP146 P0000 60015 T02000194 50006
KLEE 210851Z AUTO 00000KT 5SM BR FEW010 SCT015 OVC033 20/19 A2997 RMK AO2 RAE0759 P0000
KLEE 210829Z AUTO 25003KT 7SM SCT008 BKN016 OVC032 21/19 A2996 RMK AO2 RAE0759 P0000 T02060194
KLEE 210816Z AUTO VRB03KT 6SM BR FEW004 BKN014 OVC100 21/19 A2996 RMK AO2 RAE0759 P0000 T02060194
KLEE 210753Z AUTO 00000KT 4SM -RA BR FEW004 BKN085 OVC110 20/19 A2996 RMK AO2 RAE09B32 SLP143 P0004 T02000194
KLEE 210734Z AUTO 20003KT 5SM -RA BR SCT004 BKN026 OVC100 21/19 A2996 RMK AO2 RAE09B32 P0001 T02060194
KLEE 210713Z AUTO 24003KT 6SM BR FEW004 BKN030 OVC120 21/19 A2995 RMK AO2 RAE09 P0001 T02060194
KLEE 210653Z AUTO 00000KT 5SM -RA BR FEW022 BKN100 OVC120 21/19 A2995 RMK AO2 RAB27 SLP140 P0011 T02060194
KLEE 210649Z AUTO 00000KT 4SM -RA BR FEW022 BKN090 OVC110 21/19 A2995 RMK AO2 RAB27 P0011
KLEE 210639Z AUTO 24004KT 2SM +RA BR FEW022 BKN049 OVC100 21/19 A2997 RMK AO2 RAB27 P0010 T02060194
KLEE 210630Z AUTO VRB04KT 2 1/2SM +RA BR BKN022 OVC100 21/19 A2997 RMK AO2 RAB27 P0006 T02060194
KLEE 210553Z AUTO 21004KT 9SM FEW005 BKN110 21/19 A2996 RMK AO2 SLP143 T02060194 10217 20200 56003
KLEE 210453Z AUTO 17006KT 10SM FEW110 21/19 A2996 RMK AO2 SLP145 T02060194 402220189
KLEE 210353Z AUTO 16006KT 10SM FEW006 21/19 A2997 RMK AO2 SLP147 T02060189
KLEE 210253Z AUTO 13004KT 10SM FEW007 21/19 A2997 RMK AO2 SLP146 T02060189 51008
KLEE 210241Z AUTO 14005KT 10SM SCT007 SCT026 21/19 A2997 RMK AO2 T02060189
KLEE 210230Z AUTO 15004KT 10SM BKN008 OVC026 21/19 A2997 RMK AO2 T02060189
KLEE 210220Z AUTO 10003KT 10SM BKN009 OVC026 21/19 A2997 RMK AO2 T02060189
KLEE 210203Z AUTO 12004KT 10SM FEW009 OVC026 21/19 A2997 RMK AO2 T02060189
KLEE 210153Z AUTO 09004KT 10SM OVC027 21/19 A2996 RMK AO2 SLP145 T02060189